createdAt,value
2023-03-16T00:01:22.177Z,99654.81
2023-03-16T00:03:48.597Z,99653.81
2023-03-16T00:06:18.750Z,99655.81
2023-03-16T00:08:45.352Z,99660.97
2023-03-16T00:11:12.204Z,99657.53
2023-03-16T00:13:38.798Z,99660.09
2023-03-16T00:16:07.877Z,99661.16
2023-03-16T00:18:38.962Z,99653.69
2023-03-16T00:21:06.406Z,99657.81
2023-03-16T00:23:35.743Z,99652.53
2023-03-16T00:26:07.894Z,99657.25
2023-03-16T00:28:35.546Z,99644.47
2023-03-16T00:31:06.748Z,99640.06
2023-03-16T00:33:36.246Z,99644.41
2023-03-16T00:36:03.723Z,99633.28
2023-03-16T00:38:34.685Z,99644.53
2023-03-16T00:41:04.910Z,99644.03
2023-03-16T00:43:41.116Z,99636.97
2023-03-16T00:46:09.710Z,99635.97
2023-03-16T00:48:38.348Z,99636.75
2023-03-16T00:51:07.354Z,99637.78
2023-03-16T00:53:36.254Z,99638.69
2023-03-16T00:56:04.361Z,99630.00
2023-03-16T00:58:36.175Z,99622.84
2023-03-16T01:01:08.638Z,99622.28
2023-03-16T01:03:36.449Z,99618.09
2023-03-16T01:06:10.684Z,99619.13
2023-03-16T01:08:38.755Z,99623.94
2023-03-16T01:11:11.573Z,99623.06
2023-03-16T01:13:39.003Z,99622.22
2023-03-16T01:16:06.198Z,99626.56
2023-03-16T01:18:35.408Z,99625.88
2023-03-16T01:21:03.804Z,99622.28
2023-03-16T01:23:31.297Z,99628.19
2023-03-16T01:25:59.451Z,99623.63
2023-03-16T01:28:28.903Z,99630.44
2023-03-16T01:31:00.955Z,99645.41
2023-03-16T01:33:28.368Z,99645.41
2023-03-16T01:36:01.189Z,99637.78
2023-03-16T01:38:28.143Z,99630.84
2023-03-16T01:40:55.855Z,99622.06
2023-03-16T01:43:26.166Z,99616.06
2023-03-16T01:46:04.991Z,99613.56
2023-03-16T01:49:02.688Z,99596.56
2023-03-16T01:51:43.489Z,99589.47
2023-03-16T01:54:28.611Z,99590.31
2023-03-16T01:57:22.447Z,99590.16
2023-03-16T01:59:53.157Z,99577.31
2023-03-16T02:02:24.294Z,99573.63
2023-03-16T02:04:58.583Z,99559.31
2023-03-16T02:07:28.552Z,99565.31
2023-03-16T02:10:01.212Z,99565.94
2023-03-16T02:12:29.262Z,99555.31
2023-03-16T02:14:55.877Z,99548.56
2023-03-16T02:17:27.141Z,99542.59
2023-03-16T02:20:16.172Z,99540.31
2023-03-16T02:22:48.863Z,99529.44
2023-03-16T02:25:18.548Z,99526.94
2023-03-16T02:28:15.594Z,99525.09
2023-03-16T02:30:42.134Z,99524.59
2023-03-16T02:33:09.603Z,99512.91
2023-03-16T02:35:36.038Z,99515.47
2023-03-16T02:38:02.464Z,99525.22
2023-03-16T02:40:31.340Z,99527.50
2023-03-16T02:43:13.578Z,99524.09
2023-03-16T02:45:46.576Z,99529.03
2023-03-16T02:48:22.300Z,99534.84
2023-03-16T02:50:52.889Z,99528.81
2023-03-16T02:53:20.079Z,99521.16
2023-03-16T02:55:47.095Z,99532.13
2023-03-16T02:58:15.461Z,99519.22
2023-03-16T03:00:42.324Z,99510.38
2023-03-16T03:03:09.451Z,99518.81
2023-03-16T03:05:37.009Z,99509.41
2023-03-16T03:08:04.559Z,99509.28
2023-03-16T03:10:31.109Z,99512.44
2023-03-16T03:12:58.217Z,99512.88
2023-03-16T03:15:24.992Z,99509.88
2023-03-16T03:17:51.904Z,99511.34
2023-03-16T03:20:19.686Z,99503.50
2023-03-16T03:22:48.969Z,99497.53
2023-03-16T03:25:17.178Z,99493.59
2023-03-16T03:27:45.458Z,99496.28
2023-03-16T03:30:15.634Z,99484.44
2023-03-16T03:32:44.111Z,99487.06
2023-03-16T03:35:12.556Z,99484.69
2023-03-16T03:37:41.251Z,99491.28
2023-03-16T03:40:15.748Z,99490.72
2023-03-16T03:42:42.792Z,99495.00
2023-03-16T03:45:13.188Z,99497.81
2023-03-16T03:47:41.024Z,99494.69
2023-03-16T03:50:10.309Z,99488.78
2023-03-16T03:52:36.811Z,99489.28
2023-03-16T03:55:04.202Z,99484.28
2023-03-16T03:57:30.934Z,99486.28
2023-03-16T03:59:57.938Z,99487.13
2023-03-16T04:02:24.509Z,99488.41
2023-03-16T04:04:51.262Z,99480.59
2023-03-16T04:07:18.105Z,99489.50
2023-03-16T04:09:44.862Z,99479.56
2023-03-16T04:12:11.801Z,99477.94
2023-03-16T04:14:38.271Z,99477.31
2023-03-16T04:17:04.841Z,99484.13
2023-03-16T04:19:31.500Z,99485.53
2023-03-16T04:21:57.875Z,99474.69
2023-03-16T04:24:24.607Z,99470.63
2023-03-16T04:26:50.986Z,99470.53
2023-03-16T04:29:20.698Z,99476.53
2023-03-16T04:31:47.123Z,99474.13
2023-03-16T04:34:13.878Z,99474.06
2023-03-16T04:36:41.752Z,99474.97
2023-03-16T04:39:08.936Z,99466.69
2023-03-16T04:41:35.461Z,99459.13
2023-03-16T04:44:01.954Z,99446.88
2023-03-16T04:46:29.502Z,99452.06
2023-03-16T04:48:58.208Z,99437.38
2023-03-16T04:51:25.750Z,99439.19
2023-03-16T04:53:52.272Z,99440.25
2023-03-16T04:56:18.763Z,99442.88
2023-03-16T04:58:47.309Z,99431.19
2023-03-16T05:01:14.173Z,99433.06
2023-03-16T05:03:41.211Z,99440.44
2023-03-16T05:06:07.702Z,99439.19
2023-03-16T05:08:34.095Z,99433.50
2023-03-16T05:11:00.545Z,99424.59
2023-03-16T05:13:26.920Z,99438.72
2023-03-16T05:15:56.693Z,99423.31
2023-03-16T05:18:23.431Z,99421.31
2023-03-16T05:20:55.997Z,99421.91
2023-03-16T05:23:22.889Z,99420.13
2023-03-16T05:25:50.169Z,99425.25
2023-03-16T05:28:17.520Z,99417.94
2023-03-16T05:30:45.297Z,99416.63
2023-03-16T05:33:12.918Z,99426.91
2023-03-16T05:35:39.661Z,99414.81
2023-03-16T05:38:06.555Z,99422.94
2023-03-16T05:40:33.188Z,99417.78
2023-03-16T05:43:00.578Z,99419.66
2023-03-16T05:45:27.599Z,99426.72
2023-03-16T05:47:54.545Z,99423.84
2023-03-16T05:50:21.340Z,99430.50
2023-03-16T05:52:48.328Z,99423.81
2023-03-16T05:55:16.303Z,99436.47
2023-03-16T05:57:44.607Z,99432.75
2023-03-16T06:00:15.974Z,99435.16
2023-03-16T06:02:43.560Z,99444.88
2023-03-16T06:05:11.096Z,99444.19
2023-03-16T06:07:37.721Z,99435.16
2023-03-16T06:10:05.159Z,99435.75
2023-03-16T06:12:32.177Z,99439.97
2023-03-16T06:14:58.575Z,99444.13
2023-03-16T06:17:25.119Z,99445.34
2023-03-16T06:19:51.505Z,99441.50
2023-03-16T06:22:18.950Z,99434.16
2023-03-16T06:24:45.413Z,99446.66
2023-03-16T06:27:12.425Z,99439.75
2023-03-16T06:29:39.034Z,99439.16
2023-03-16T06:32:05.614Z,99444.28
2023-03-16T06:34:32.193Z,99432.66
2023-03-16T06:36:58.871Z,99442.03
2023-03-16T06:39:25.565Z,99438.47
2023-03-16T06:41:51.958Z,99438.47
2023-03-16T06:44:18.509Z,99441.72
2023-03-16T06:46:45.214Z,99444.38
2023-03-16T06:49:11.698Z,99438.84
2023-03-16T06:51:38.074Z,99440.28
2023-03-16T06:54:04.966Z,99440.72
2023-03-16T06:56:31.765Z,99442.84
2023-03-16T06:58:58.601Z,99446.09
2023-03-16T07:01:25.485Z,99447.59
2023-03-16T07:03:52.446Z,99443.72
2023-03-16T07:06:18.915Z,99441.47
2023-03-16T07:08:45.492Z,99447.63
2023-03-16T07:11:12.226Z,99444.97
2023-03-16T07:13:38.823Z,99452.31
2023-03-16T07:16:05.625Z,99464.06
2023-03-16T07:18:32.311Z,99461.34
2023-03-16T07:20:59.109Z,99462.09
2023-03-16T07:23:26.097Z,99465.09
2023-03-16T07:25:52.796Z,99459.63
2023-03-16T07:28:19.866Z,99455.00
2023-03-16T07:31:02.497Z,99456.41
2023-03-16T07:33:32.125Z,99459.91
2023-03-16T07:35:59.491Z,99459.41
2023-03-16T07:38:26.168Z,99467.81
2023-03-16T07:40:52.579Z,99458.75
2023-03-16T07:43:19.317Z,99456.47
2023-03-16T07:45:49.977Z,99455.34
2023-03-16T07:48:17.483Z,99445.25
2023-03-16T07:50:44.607Z,99442.69
2023-03-16T07:53:11.140Z,99444.88
2023-03-16T07:55:38.898Z,99444.41
2023-03-16T07:58:06.151Z,99446.50
2023-03-16T08:00:33.756Z,99441.19
2023-03-16T08:03:00.580Z,99449.38
2023-03-16T08:05:27.883Z,99454.09
2023-03-16T08:07:57.159Z,99445.59
2023-03-16T08:10:24.802Z,99440.44
2023-03-16T08:12:51.954Z,99449.25
2023-03-16T08:15:19.637Z,99441.75
2023-03-16T08:17:46.489Z,99440.41
2023-03-16T08:20:14.862Z,99434.50
2023-03-16T08:22:46.244Z,99430.09
2023-03-16T08:25:13.948Z,99428.78
2023-03-16T08:27:43.358Z,99415.88
2023-03-16T08:30:11.883Z,99412.88
2023-03-16T08:32:39.772Z,99421.84
2023-03-16T08:35:09.559Z,99432.00
2023-03-16T08:37:36.623Z,99425.34
2023-03-16T08:40:04.979Z,99426.53
2023-03-16T08:42:32.833Z,99425.69
2023-03-16T08:45:00.856Z,99427.00
2023-03-16T08:47:27.540Z,99423.78
2023-03-16T08:49:53.982Z,99428.28
2023-03-16T08:52:20.872Z,99426.63
2023-03-16T08:55:01.852Z,99422.63
2023-03-16T08:57:28.665Z,99421.38
2023-03-16T08:59:55.802Z,99419.56
2023-03-16T09:02:22.680Z,99418.41
2023-03-16T09:04:49.674Z,99403.94
2023-03-16T09:07:16.627Z,99411.81
2023-03-16T09:09:44.322Z,99409.47
2023-03-16T09:12:11.095Z,99401.25
2023-03-16T09:14:38.791Z,99394.75
2023-03-16T09:17:07.682Z,99389.44
2023-03-16T09:19:53.217Z,99393.03
2023-03-16T09:22:21.795Z,99398.34
2023-03-16T09:24:49.915Z,99393.13
2023-03-16T09:27:17.309Z,99391.50
2023-03-16T09:29:45.589Z,99402.56
2023-03-16T09:32:12.971Z,99401.16
2023-03-16T09:34:41.082Z,99398.28
2023-03-16T09:37:07.857Z,99391.94
2023-03-16T09:39:34.378Z,99381.69
2023-03-16T09:42:19.497Z,99379.41
2023-03-16T09:45:15.257Z,99390.16
2023-03-16T09:47:43.444Z,99387.59
2023-03-16T09:50:20.878Z,99388.63
2023-03-16T09:52:55.377Z,99397.16
2023-03-16T09:55:31.946Z,99389.88
2023-03-16T09:58:00.632Z,99396.19
2023-03-16T10:00:34.029Z,99387.53
2023-03-16T10:03:22.821Z,99392.03
2023-03-16T10:06:06.645Z,99383.41
2023-03-16T10:08:40.611Z,99376.84
2023-03-16T10:11:14.967Z,99381.75
2023-03-16T10:13:50.001Z,99367.28
2023-03-16T10:16:19.214Z,99370.84
2023-03-16T10:18:50.208Z,99367.41
2023-03-16T10:21:19.305Z,99372.59
2023-03-16T10:23:48.826Z,99363.28
2023-03-16T10:26:24.531Z,99364.00
2023-03-16T10:28:52.848Z,99365.22
2023-03-16T10:31:22.814Z,99348.31
2023-03-16T10:33:55.622Z,99349.44
2023-03-16T10:36:31.043Z,99357.94
2023-03-16T10:39:05.336Z,99354.91
2023-03-16T10:41:43.173Z,99359.38
2023-03-16T10:44:21.672Z,99352.34
2023-03-16T10:46:55.655Z,99347.09
2023-03-16T10:49:26.058Z,99337.47
2023-03-16T10:51:59.439Z,99338.03
2023-03-16T10:54:31.135Z,99333.53
2023-03-16T10:56:59.114Z,99327.69
2023-03-16T10:59:36.932Z,99339.22
2023-03-16T11:02:18.054Z,99338.44
2023-03-16T11:04:44.604Z,99335.13
2023-03-16T11:07:17.638Z,99335.28
2023-03-16T11:09:47.190Z,99326.78
2023-03-16T11:12:21.038Z,99324.53
2023-03-16T11:14:49.007Z,99316.16
2023-03-16T11:17:47.128Z,99316.50
2023-03-16T11:20:23.596Z,99297.06
2023-03-16T11:22:51.292Z,99283.31
2023-03-16T11:25:41.344Z,99288.81
2023-03-16T11:28:13.066Z,99288.97
2023-03-16T11:31:07.030Z,99291.94
2023-03-16T11:33:34.802Z,99288.47
2023-03-16T11:36:16.032Z,99275.13
2023-03-16T11:39:11.218Z,99283.22
2023-03-16T11:42:03.985Z,99280.00
2023-03-16T11:44:48.287Z,99272.09
2023-03-16T11:47:34.186Z,99253.44
2023-03-16T11:50:19.470Z,99257.72
2023-03-16T11:52:54.941Z,99251.56
2023-03-16T11:55:44.157Z,99247.28
2023-03-16T11:58:37.402Z,99241.66
2023-03-16T12:01:50.553Z,99240.38
2023-03-16T12:04:52.851Z,99240.78
2023-03-16T12:07:40.946Z,99240.25
2023-03-16T12:10:33.824Z,99227.81
2023-03-16T12:13:08.443Z,99223.63
2023-03-16T12:15:42.524Z,99223.75
2023-03-16T12:18:18.971Z,99225.59
2023-03-16T12:20:53.953Z,99217.53
2023-03-16T12:23:32.038Z,99211.72
2023-03-16T12:26:00.093Z,99215.16
2023-03-16T12:28:29.280Z,99210.16
2023-03-16T12:30:59.160Z,99196.56
2023-03-16T12:33:56.381Z,99192.88
2023-03-16T12:36:49.137Z,99186.31
2023-03-16T12:39:27.970Z,99174.22
2023-03-16T12:42:15.782Z,99168.88
2023-03-16T12:44:49.161Z,99164.28
2023-03-16T12:47:58.983Z,99166.41
2023-03-16T12:50:25.891Z,99168.28
2023-03-16T12:52:53.937Z,99163.75
2023-03-16T12:55:40.582Z,99163.72
2023-03-16T12:58:08.610Z,99163.19
2023-03-16T13:00:38.254Z,99159.28
2023-03-16T13:03:11.941Z,99152.44
2023-03-16T13:05:45.969Z,99151.91
2023-03-16T13:08:16.488Z,99150.19
2023-03-16T13:10:59.567Z,99148.56
2023-03-16T13:13:27.162Z,99138.91
2023-03-16T13:16:07.012Z,99135.59
2023-03-16T13:18:37.991Z,99123.59
2023-03-16T13:21:33.702Z,99112.22
2023-03-16T13:24:15.732Z,99102.66
2023-03-16T13:27:24.048Z,99104.03
2023-03-16T13:29:59.071Z,99098.44
2023-03-16T13:32:30.763Z,99098.34
2023-03-16T13:35:00.589Z,99097.06
2023-03-16T13:37:29.552Z,99101.66
2023-03-16T13:40:02.037Z,99092.44
2023-03-16T13:42:33.340Z,99092.38
2023-03-16T13:45:12.758Z,99078.00
2023-03-16T13:47:42.844Z,99086.84
2023-03-16T13:50:14.181Z,99079.00
2023-03-16T13:52:43.530Z,99083.53
2023-03-16T13:55:18.548Z,99065.03
2023-03-16T13:57:45.881Z,99054.59
2023-03-16T14:00:25.561Z,99065.56
2023-03-16T14:02:57.519Z,99068.25
2023-03-16T14:05:31.092Z,99051.59
2023-03-16T14:08:00.506Z,99065.13
2023-03-16T14:10:32.573Z,99054.44
2023-03-16T14:13:09.908Z,99058.69
2023-03-16T14:15:38.583Z,99051.78
2023-03-16T14:18:21.474Z,99044.19
2023-03-16T14:20:52.985Z,99042.75
2023-03-16T14:23:25.784Z,99043.28
2023-03-16T14:25:53.450Z,99034.91
2023-03-16T14:28:27.011Z,99033.75
2023-03-16T14:31:01.467Z,99029.94
2023-03-16T14:33:34.492Z,99012.13
2023-03-16T14:36:13.016Z,99017.59
2023-03-16T14:38:42.139Z,99002.50
2023-03-16T14:41:26.284Z,99003.69
2023-03-16T14:44:03.728Z,98996.94
2023-03-16T14:46:40.366Z,98990.09
2023-03-16T14:49:23.860Z,98992.88
2023-03-16T14:51:53.655Z,98981.13
2023-03-16T14:54:22.731Z,98982.28
2023-03-16T14:56:54.766Z,98969.81
2023-03-16T14:59:21.825Z,98967.16
2023-03-16T15:01:50.356Z,98950.41
2023-03-16T15:04:24.300Z,98951.84
2023-03-16T15:06:50.770Z,98949.16
2023-03-16T15:09:36.640Z,98942.88
2023-03-16T15:12:03.450Z,98945.94
2023-03-16T15:14:49.304Z,98938.25
2023-03-16T15:17:16.532Z,98944.16
2023-03-16T15:19:44.531Z,98941.72
2023-03-16T15:22:12.476Z,98935.56
2023-03-16T15:24:39.703Z,98945.25
2023-03-16T15:27:22.719Z,98937.19
2023-03-16T15:29:49.174Z,98947.38
2023-03-16T15:32:16.834Z,98939.13
2023-03-16T15:34:47.069Z,98924.66
2023-03-16T15:37:16.236Z,98941.97
2023-03-16T15:39:44.414Z,98938.72
2023-03-16T15:42:18.990Z,98946.47
2023-03-16T15:44:46.693Z,98930.06
2023-03-16T15:47:13.270Z,98937.44
2023-03-16T15:49:47.290Z,98931.09
2023-03-16T15:52:33.222Z,98943.63
2023-03-16T15:55:07.988Z,98931.78
2023-03-16T15:57:35.431Z,98936.25
2023-03-16T16:00:02.220Z,98942.78
2023-03-16T16:02:32.597Z,98934.00
2023-03-16T16:04:59.444Z,98937.50
2023-03-16T16:07:27.253Z,98936.28
2023-03-16T16:09:53.743Z,98934.75
2023-03-16T16:12:26.553Z,98946.25
2023-03-16T16:14:53.982Z,98940.00
2023-03-16T16:17:35.944Z,98939.53
2023-03-16T16:20:27.181Z,98933.72
2023-03-16T16:22:56.549Z,98922.66
2023-03-16T16:25:24.952Z,98920.25
2023-03-16T16:27:51.785Z,98918.75
2023-03-16T16:30:25.195Z,98924.16
2023-03-16T16:32:53.092Z,98926.97
2023-03-16T16:35:25.945Z,98917.16
2023-03-16T16:37:53.579Z,98917.59
2023-03-16T16:40:25.934Z,98911.69
2023-03-16T16:42:54.113Z,98919.03
2023-03-16T16:45:25.107Z,98923.88
2023-03-16T16:47:55.448Z,98913.31
2023-03-16T16:50:25.409Z,98917.22
2023-03-16T16:52:53.587Z,98919.09
2023-03-16T16:55:22.156Z,98905.91
2023-03-16T16:57:52.562Z,98914.38
2023-03-16T17:00:24.629Z,98914.13
2023-03-16T17:02:53.546Z,98914.00
2023-03-16T17:05:23.951Z,98919.81
2023-03-16T17:07:51.013Z,98903.47
2023-03-16T17:10:27.036Z,98907.59
2023-03-16T17:12:56.014Z,98909.38
2023-03-16T17:15:29.768Z,98899.97
2023-03-16T17:18:05.026Z,98903.78
2023-03-16T17:20:31.354Z,98902.50
2023-03-16T17:22:58.908Z,98894.94
2023-03-16T17:25:26.265Z,98897.91
2023-03-16T17:27:56.319Z,98899.00
2023-03-16T17:30:27.656Z,98904.78
2023-03-16T17:32:59.622Z,98895.75
2023-03-16T17:35:26.229Z,98902.38
2023-03-16T17:37:52.855Z,98892.66
2023-03-16T17:40:25.346Z,98903.09
2023-03-16T17:42:55.787Z,98898.28
2023-03-16T17:45:26.751Z,98904.63
2023-03-16T17:47:54.485Z,98909.38
2023-03-16T17:50:29.013Z,98915.59
2023-03-16T17:52:56.075Z,98912.22
2023-03-16T17:55:24.740Z,98908.97
2023-03-16T17:57:54.356Z,98898.28
2023-03-16T18:00:24.960Z,98899.94
2023-03-16T18:02:54.881Z,98900.38
2023-03-16T18:05:27.179Z,98894.19
2023-03-16T18:07:55.987Z,98893.63
2023-03-16T18:10:26.185Z,98897.28
2023-03-16T18:12:57.792Z,98899.41
2023-03-16T18:15:27.967Z,98900.91
2023-03-16T18:17:55.468Z,98911.03
2023-03-16T18:20:28.156Z,98903.44
2023-03-16T18:22:56.113Z,98902.88
2023-03-16T18:25:33.077Z,98912.69
2023-03-16T18:28:01.847Z,98907.09
2023-03-16T18:30:29.501Z,98919.03
2023-03-16T18:32:57.851Z,98917.34
2023-03-16T18:35:24.629Z,98905.94
2023-03-16T18:37:53.344Z,98911.69
2023-03-16T18:40:20.222Z,98922.19
2023-03-16T18:42:47.462Z,98912.69
2023-03-16T18:45:16.754Z,98918.00
2023-03-16T18:47:50.445Z,98916.03
2023-03-16T18:50:26.421Z,98919.09
2023-03-16T18:52:54.562Z,98922.72
2023-03-16T18:55:25.165Z,98912.91
2023-03-16T18:57:56.205Z,98898.47
2023-03-16T19:00:25.983Z,98899.81
2023-03-16T19:02:59.194Z,98905.91
2023-03-16T19:05:35.806Z,98916.28
2023-03-16T19:08:04.776Z,98906.91
2023-03-16T19:10:38.597Z,98913.72
2023-03-16T19:13:19.155Z,98912.59
2023-03-16T19:15:45.706Z,98913.28
2023-03-16T19:18:12.729Z,98907.50
2023-03-16T19:20:41.797Z,98903.25
2023-03-16T19:23:17.040Z,98908.28
2023-03-16T19:25:45.375Z,98901.34
2023-03-16T19:28:22.714Z,98903.25
2023-03-16T19:30:49.264Z,98907.13
2023-03-16T19:33:22.694Z,98911.50
2023-03-16T19:35:52.146Z,98915.16
2023-03-16T19:38:23.327Z,98911.09
2023-03-16T19:40:59.760Z,98901.72
2023-03-16T19:43:28.023Z,98911.97
2023-03-16T19:45:56.906Z,98900.13
2023-03-16T19:48:33.853Z,98904.34
2023-03-16T19:51:00.861Z,98892.63
2023-03-16T19:53:27.685Z,98891.34
2023-03-16T19:55:54.517Z,98893.34
2023-03-16T19:58:33.608Z,98898.22
2023-03-16T20:01:00.941Z,98888.50
2023-03-16T20:03:29.842Z,98892.13
2023-03-16T20:05:56.290Z,98888.38
2023-03-16T20:08:26.042Z,98894.34
2023-03-16T20:10:57.143Z,98894.22
2023-03-16T20:13:24.873Z,98891.81
2023-03-16T20:15:51.461Z,98892.53
2023-03-16T20:18:19.253Z,98883.34
2023-03-16T20:20:46.822Z,98898.03
2023-03-16T20:23:18.640Z,98878.44
2023-03-16T20:25:46.683Z,98877.72
2023-03-16T20:28:29.290Z,98883.22
2023-03-16T20:30:56.380Z,98876.81
2023-03-16T20:33:25.456Z,98862.56
2023-03-16T20:35:56.394Z,98862.81
2023-03-16T20:38:23.971Z,98862.00
2023-03-16T20:40:53.211Z,98849.53
2023-03-16T20:43:26.447Z,98845.84
2023-03-16T20:45:55.415Z,98846.25
2023-03-16T20:48:25.190Z,98858.31
2023-03-16T20:50:56.244Z,98842.03
2023-03-16T20:53:23.638Z,98852.25
2023-03-16T20:55:51.333Z,98857.75
2023-03-16T20:58:28.894Z,98841.13
2023-03-16T21:00:57.727Z,98852.16
2023-03-16T21:03:27.726Z,98848.66
2023-03-16T21:05:59.352Z,98848.50
2023-03-16T21:08:26.717Z,98845.00
2023-03-16T21:10:53.900Z,98832.94
2023-03-16T21:13:29.697Z,98829.13
2023-03-16T21:15:58.665Z,98834.44
2023-03-16T21:18:25.339Z,98825.97
2023-03-16T21:20:53.204Z,98832.59
2023-03-16T21:23:22.795Z,98829.81
2023-03-16T21:26:01.180Z,98813.81
2023-03-16T21:28:31.693Z,98818.91
2023-03-16T21:30:58.685Z,98816.28
2023-03-16T21:33:37.393Z,98809.69
2023-03-16T21:36:08.592Z,98799.22
2023-03-16T21:38:35.277Z,98805.56
2023-03-16T21:41:01.880Z,98796.13
2023-03-16T21:43:28.694Z,98797.56
2023-03-16T21:45:57.322Z,98790.78
2023-03-16T21:48:41.876Z,98796.13
2023-03-16T21:51:18.137Z,98786.03
2023-03-16T21:53:46.485Z,98781.28
2023-03-16T21:56:15.584Z,98782.41
2023-03-16T21:58:43.498Z,98783.25
2023-03-16T22:01:29.893Z,98779.47
2023-03-16T22:04:05.034Z,98782.59
2023-03-16T22:06:31.425Z,98770.38
2023-03-16T22:09:00.026Z,98778.38
2023-03-16T22:11:28.904Z,98757.50
2023-03-16T22:13:57.578Z,98768.03
2023-03-16T22:16:27.882Z,98770.31
2023-03-16T22:18:56.489Z,98756.34
2023-03-16T22:21:29.449Z,98762.31
2023-03-16T22:23:57.608Z,98755.84
2023-03-16T22:26:25.199Z,98763.19
2023-03-16T22:28:52.937Z,98762.53
2023-03-16T22:31:29.406Z,98758.16
2023-03-16T22:33:56.780Z,98765.19
2023-03-16T22:36:23.429Z,98741.19
2023-03-16T22:38:56.406Z,98757.91
2023-03-16T22:41:23.227Z,98760.19
2023-03-16T22:43:50.265Z,98753.56
2023-03-16T22:46:23.258Z,98758.59
2023-03-16T22:48:51.423Z,98762.84
2023-03-16T22:51:26.541Z,98757.06
2023-03-16T22:53:56.228Z,98754.97
2023-03-16T22:56:23.953Z,98743.38
2023-03-16T22:58:55.849Z,98739.19
2023-03-16T23:01:28.296Z,98731.19
2023-03-16T23:03:55.294Z,98724.28
2023-03-16T23:06:26.560Z,98713.03
2023-03-16T23:08:54.376Z,98705.63
2023-03-16T23:11:23.806Z,98708.25
2023-03-16T23:13:53.606Z,98717.41
2023-03-16T23:16:23.898Z,98726.38
2023-03-16T23:18:51.194Z,98723.44
2023-03-16T23:21:21.618Z,98729.88
2023-03-16T23:24:02.549Z,98734.56
2023-03-16T23:26:29.988Z,98730.72
2023-03-16T23:28:56.855Z,98730.88
2023-03-16T23:31:24.838Z,98724.25
2023-03-16T23:33:51.538Z,98725.22
2023-03-16T23:36:20.112Z,98715.25
2023-03-16T23:38:47.800Z,98719.75
2023-03-16T23:41:17.542Z,98723.97
2023-03-16T23:43:46.237Z,98728.06
2023-03-16T23:46:21.821Z,98718.38
2023-03-16T23:48:49.721Z,98717.91
2023-03-16T23:51:21.925Z,98706.03
2023-03-16T23:53:49.227Z,98700.28
2023-03-16T23:56:16.599Z,98697.50
2023-03-16T23:58:43.312Z,98700.28
